sensor_id;sensor_type;location;lat;lon;timestamp;temperature;humidity
75489;HTU21D;64069;46.396;48.102;2023-10-19T00:01:15;6.72;83.09
75489;HTU21D;64069;46.396;48.102;2023-10-19T00:03:42;6.70;83.07
75489;HTU21D;64069;46.396;48.102;2023-10-19T00:06:10;6.72;83.01
75489;HTU21D;64069;46.396;48.102;2023-10-19T00:08:37;6.72;83.01
75489;HTU21D;64069;46.396;48.102;2023-10-19T00:11:12;6.73;83.10
75489;HTU21D;64069;46.396;48.102;2023-10-19T00:13:48;6.71;83.18
75489;HTU21D;64069;46.396;48.102;2023-10-19T00:16:19;6.72;83.13
75489;HTU21D;64069;46.396;48.102;2023-10-19T00:18:49;6.71;82.93
75489;HTU21D;64069;46.396;48.102;2023-10-19T00:21:16;6.74;83.00
75489;HTU21D;64069;46.396;48.102;2023-10-19T00:23:53;6.76;83.11
75489;HTU21D;64069;46.396;48.102;2023-10-19T00:26:22;6.81;83.11
75489;HTU21D;64069;46.396;48.102;2023-10-19T00:28:56;6.84;83.12
75489;HTU21D;64069;46.396;48.102;2023-10-19T00:31:23;6.88;83.16
75489;HTU21D;64069;46.396;48.102;2023-10-19T00:33:49;6.91;83.21
75489;HTU21D;64069;46.396;48.102;2023-10-19T00:36:20;6.96;83.27
75489;HTU21D;64069;46.396;48.102;2023-10-19T00:38:47;6.98;83.33
75489;HTU21D;64069;46.396;48.102;2023-10-19T00:41:14;7.00;83.42
75489;HTU21D;64069;46.396;48.102;2023-10-19T00:43:45;7.01;83.63
75489;HTU21D;64069;46.396;48.102;2023-10-19T00:46:20;7.05;83.90
75489;HTU21D;64069;46.396;48.102;2023-10-19T00:48:50;7.08;83.84
75489;HTU21D;64069;46.396;48.102;2023-10-19T00:51:21;7.13;83.90
75489;HTU21D;64069;46.396;48.102;2023-10-19T00:54:05;7.16;83.87
75489;HTU21D;64069;46.396;48.102;2023-10-19T00:56:37;7.22;83.78
75489;HTU21D;64069;46.396;48.102;2023-10-19T00:59:03;7.26;83.82
75489;HTU21D;64069;46.396;48.102;2023-10-19T01:01:41;7.31;83.82
75489;HTU21D;64069;46.396;48.102;2023-10-19T01:04:14;7.35;83.98
75489;HTU21D;64069;46.396;48.102;2023-10-19T01:06:44;7.40;84.04
75489;HTU21D;64069;46.396;48.102;2023-10-19T01:09:13;7.44;84.27
75489;HTU21D;64069;46.396;48.102;2023-10-19T01:11:45;7.50;84.20
75489;HTU21D;64069;46.396;48.102;2023-10-19T01:14:19;7.56;84.18
75489;HTU21D;64069;46.396;48.102;2023-10-19T01:16:47;7.60;84.15
75489;HTU21D;64069;46.396;48.102;2023-10-19T01:19:15;7.62;84.23
75489;HTU21D;64069;46.396;48.102;2023-10-19T01:21:44;7.65;84.34
75489;HTU21D;64069;46.396;48.102;2023-10-19T01:24:19;7.68;84.42
75489;HTU21D;64069;46.396;48.102;2023-10-19T01:26:53;7.67;84.45
75489;HTU21D;64069;46.396;48.102;2023-10-19T01:29:19;7.64;84.53
75489;HTU21D;64069;46.396;48.102;2023-10-19T01:31:52;7.59;84.77
75489;HTU21D;64069;46.396;48.102;2023-10-19T01:34:38;7.54;84.90
75489;HTU21D;64069;46.396;48.102;2023-10-19T01:37:04;7.49;84.97
75489;HTU21D;64069;46.396;48.102;2023-10-19T01:39:34;7.50;85.05
75489;HTU21D;64069;46.396;48.102;2023-10-19T01:42:04;7.50;85.16
75489;HTU21D;64069;46.396;48.102;2023-10-19T01:44:31;7.52;85.17
75489;HTU21D;64069;46.396;48.102;2023-10-19T01:46:57;7.52;85.21
75489;HTU21D;64069;46.396;48.102;2023-10-19T01:49:26;7.53;85.27
75489;HTU21D;64069;46.396;48.102;2023-10-19T01:51:52;7.56;85.36
75489;HTU21D;64069;46.396;48.102;2023-10-19T01:54:20;7.58;85.46
75489;HTU21D;64069;46.396;48.102;2023-10-19T01:56:54;7.59;85.56
75489;HTU21D;64069;46.396;48.102;2023-10-19T01:59:23;7.61;85.58
75489;HTU21D;64069;46.396;48.102;2023-10-19T02:01:54;7.63;85.71
75489;HTU21D;64069;46.396;48.102;2023-10-19T02:04:23;7.63;85.71
75489;HTU21D;64069;46.396;48.102;2023-10-19T02:06:50;7.65;85.74
75489;HTU21D;64069;46.396;48.102;2023-10-19T02:09:19;7.69;85.78
75489;HTU21D;64069;46.396;48.102;2023-10-19T02:11:57;7.70;85.69
75489;HTU21D;64069;46.396;48.102;2023-10-19T02:14:26;7.73;85.58
75489;HTU21D;64069;46.396;48.102;2023-10-19T02:16:54;7.74;85.57
75489;HTU21D;64069;46.396;48.102;2023-10-19T02:19:26;7.75;85.59
75489;HTU21D;64069;46.396;48.102;2023-10-19T02:21:56;7.76;85.62
75489;HTU21D;64069;46.396;48.102;2023-10-19T02:24:23;7.78;85.71
75489;HTU21D;64069;46.396;48.102;2023-10-19T02:26:55;7.78;85.84
75489;HTU21D;64069;46.396;48.102;2023-10-19T02:29:21;7.78;85.81
75489;HTU21D;64069;46.396;48.102;2023-10-19T02:31:47;7.81;85.90
75489;HTU21D;64069;46.396;48.102;2023-10-19T02:34:15;7.82;85.87
75489;HTU21D;64069;46.396;48.102;2023-10-19T02:36:42;7.84;85.87
75489;HTU21D;64069;46.396;48.102;2023-10-19T02:39:10;7.84;85.87
75489;HTU21D;64069;46.396;48.102;2023-10-19T02:41:41;7.86;85.98
75489;HTU21D;64069;46.396;48.102;2023-10-19T02:44:14;7.86;85.94
75489;HTU21D;64069;46.396;48.102;2023-10-19T02:46:47;7.87;86.00
75489;HTU21D;64069;46.396;48.102;2023-10-19T02:49:14;7.87;86.06
75489;HTU21D;64069;46.396;48.102;2023-10-19T02:51:44;7.88;86.09
75489;HTU21D;64069;46.396;48.102;2023-10-19T02:54:12;7.89;86.10
75489;HTU21D;64069;46.396;48.102;2023-10-19T02:56:46;7.91;86.15
75489;HTU21D;64069;46.396;48.102;2023-10-19T02:59:18;7.93;86.17
75489;HTU21D;64069;46.396;48.102;2023-10-19T03:02:05;7.97;86.11
75489;HTU21D;64069;46.396;48.102;2023-10-19T03:04:38;8.02;86.20
75489;HTU21D;64069;46.396;48.102;2023-10-19T03:07:05;8.04;86.16
75489;HTU21D;64069;46.396;48.102;2023-10-19T03:09:31;8.08;86.22
75489;HTU21D;64069;46.396;48.102;2023-10-19T03:12:02;8.09;86.20
75489;HTU21D;64069;46.396;48.102;2023-10-19T03:14:31;8.12;86.25
75489;HTU21D;64069;46.396;48.102;2023-10-19T03:16:59;8.14;86.29
75489;HTU21D;64069;46.396;48.102;2023-10-19T03:19:26;8.17;86.23
75489;HTU21D;64069;46.396;48.102;2023-10-19T03:21:52;8.19;86.29
75489;HTU21D;64069;46.396;48.102;2023-10-19T03:24:19;8.22;86.33
75489;HTU21D;64069;46.396;48.102;2023-10-19T03:27:08;8.24;86.33
75489;HTU21D;64069;46.396;48.102;2023-10-19T03:29:47;8.29;86.27
75489;HTU21D;64069;46.396;48.102;2023-10-19T03:32:19;8.33;86.20
75489;HTU21D;64069;46.396;48.102;2023-10-19T03:34:52;8.35;86.22
75489;HTU21D;64069;46.396;48.102;2023-10-19T03:37:22;8.37;86.21
75489;HTU21D;64069;46.396;48.102;2023-10-19T03:39:51;8.37;86.25
75489;HTU21D;64069;46.396;48.102;2023-10-19T03:42:17;8.36;86.32
75489;HTU21D;64069;46.396;48.102;2023-10-19T03:44:46;8.36;86.31
75489;HTU21D;64069;46.396;48.102;2023-10-19T03:47:16;8.36;86.39
75489;HTU21D;64069;46.396;48.102;2023-10-19T03:49:48;8.37;86.41
75489;HTU21D;64069;46.396;48.102;2023-10-19T03:52:17;8.38;86.39
75489;HTU21D;64069;46.396;48.102;2023-10-19T03:54:43;8.41;86.35
75489;HTU21D;64069;46.396;48.102;2023-10-19T03:57:32;0.00;86.42
75489;HTU21D;64069;46.396;48.102;2023-10-19T04:00:00;8.49;86.29
75489;HTU21D;64069;46.396;48.102;2023-10-19T04:02:38;8.53;86.21
75489;HTU21D;64069;46.396;48.102;2023-10-19T04:05:06;8.59;86.18
75489;HTU21D;64069;46.396;48.102;2023-10-19T04:07:34;8.65;86.06
75489;HTU21D;64069;46.396;48.102;2023-10-19T04:10:01;8.72;85.95
75489;HTU21D;64069;46.396;48.102;2023-10-19T04:12:40;8.79;85.85
75489;HTU21D;64069;46.396;48.102;2023-10-19T04:15:10;8.89;85.66
75489;HTU21D;64069;46.396;48.102;2023-10-19T04:17:36;8.95;85.52
75489;HTU21D;64069;46.396;48.102;2023-10-19T04:20:04;9.05;85.35
75489;HTU21D;64069;46.396;48.102;2023-10-19T04:22:49;9.09;85.21
75489;HTU21D;64069;46.396;48.102;2023-10-19T04:25:17;9.16;85.10
75489;HTU21D;64069;46.396;48.102;2023-10-19T04:27:51;9.22;85.00
75489;HTU21D;64069;46.396;48.102;2023-10-19T04:30:17;9.29;84.89
75489;HTU21D;64069;46.396;48.102;2023-10-19T04:32:53;9.34;84.77
75489;HTU21D;64069;46.396;48.102;2023-10-19T04:35:19;9.37;84.67
75489;HTU21D;64069;46.396;48.102;2023-10-19T04:37:49;9.42;84.56
75489;HTU21D;64069;46.396;48.102;2023-10-19T04:40:16;9.48;84.44
75489;HTU21D;64069;46.396;48.102;2023-10-19T04:42:42;9.54;84.29
75489;HTU21D;64069;46.396;48.102;2023-10-19T04:45:08;9.59;84.19
75489;HTU21D;64069;46.396;48.102;2023-10-19T04:47:37;9.64;84.08
75489;HTU21D;64069;46.396;48.102;2023-10-19T04:50:06;9.69;83.95
75489;HTU21D;64069;46.396;48.102;2023-10-19T04:52:33;9.77;83.81
75489;HTU21D;64069;46.396;48.102;2023-10-19T04:55:00;9.80;83.68
75489;HTU21D;64069;46.396;48.102;2023-10-19T04:57:27;9.89;83.51
75489;HTU21D;64069;46.396;48.102;2023-10-19T04:59:53;9.95;83.33
75489;HTU21D;64069;46.396;48.102;2023-10-19T05:02:19;9.99;83.23
75489;HTU21D;64069;46.396;48.102;2023-10-19T05:04:45;10.03;83.13
75489;HTU21D;64069;46.396;48.102;2023-10-19T05:07:11;10.05;83.04
75489;HTU21D;64069;46.396;48.102;2023-10-19T05:09:44;10.06;83.03
75489;HTU21D;64069;46.396;48.102;2023-10-19T05:12:11;10.08;82.97
75489;HTU21D;64069;46.396;48.102;2023-10-19T05:14:38;10.12;82.84
75489;HTU21D;64069;46.396;48.102;2023-10-19T05:17:05;10.16;82.71
75489;HTU21D;64069;46.396;48.102;2023-10-19T05:19:35;10.24;82.56
75489;HTU21D;64069;46.396;48.102;2023-10-19T05:22:04;10.31;82.36
75489;HTU21D;64069;46.396;48.102;2023-10-19T05:24:30;10.40;82.20
75489;HTU21D;64069;46.396;48.102;2023-10-19T05:26:56;10.48;82.00
75489;HTU21D;64069;46.396;48.102;2023-10-19T05:29:22;10.57;81.77
75489;HTU21D;64069;46.396;48.102;2023-10-19T05:31:52;10.71;81.53
75489;HTU21D;64069;46.396;48.102;2023-10-19T05:34:24;10.85;81.22
75489;HTU21D;64069;46.396;48.102;2023-10-19T05:36:52;10.98;80.98
75489;HTU21D;64069;46.396;48.102;2023-10-19T05:39:20;11.13;80.79
75489;HTU21D;64069;46.396;48.102;2023-10-19T05:41:56;11.22;80.44
75489;HTU21D;64069;46.396;48.102;2023-10-19T05:44:22;11.16;80.49
75489;HTU21D;64069;46.396;48.102;2023-10-19T05:46:51;11.15;80.62
75489;HTU21D;64069;46.396;48.102;2023-10-19T05:49:16;11.14;80.64
75489;HTU21D;64069;46.396;48.102;2023-10-19T05:51:43;11.13;80.72
75489;HTU21D;64069;46.396;48.102;2023-10-19T05:54:10;11.15;80.69
75489;HTU21D;64069;46.396;48.102;2023-10-19T05:56:38;11.17;80.70
75489;HTU21D;64069;46.396;48.102;2023-10-19T05:59:03;11.17;80.73
75489;HTU21D;64069;46.396;48.102;2023-10-19T06:01:31;11.25;80.69
75489;HTU21D;64069;46.396;48.102;2023-10-19T06:03:57;11.33;80.55
75489;HTU21D;64069;46.396;48.102;2023-10-19T06:06:23;11.39;80.43
75489;HTU21D;64069;46.396;48.102;2023-10-19T06:08:49;11.47;80.31
75489;HTU21D;64069;46.396;48.102;2023-10-19T06:11:20;11.56;80.18
75489;HTU21D;64069;46.396;48.102;2023-10-19T06:13:46;11.60;80.09
75489;HTU21D;64069;46.396;48.102;2023-10-19T06:16:13;11.62;80.04
75489;HTU21D;64069;46.396;48.102;2023-10-19T06:18:40;11.63;80.09
75489;HTU21D;64069;46.396;48.102;2023-10-19T06:21:06;11.60;80.17
75489;HTU21D;64069;46.396;48.102;2023-10-19T06:23:32;11.59;80.24
75489;HTU21D;64069;46.396;48.102;2023-10-19T06:25:58;11.59;80.28
75489;HTU21D;64069;46.396;48.102;2023-10-19T06:28:25;11.60;80.30
75489;HTU21D;64069;46.396;48.102;2023-10-19T06:30:52;11.59;80.31
75489;HTU21D;64069;46.396;48.102;2023-10-19T06:33:18;11.58;80.37
75489;HTU21D;64069;46.396;48.102;2023-10-19T06:35:49;11.60;80.37
75489;HTU21D;64069;46.396;48.102;2023-10-19T06:38:17;11.62;80.39
75489;HTU21D;64069;46.396;48.102;2023-10-19T06:40:43;11.66;80.33
75489;HTU21D;64069;46.396;48.102;2023-10-19T06:43:09;11.67;80.37
75489;HTU21D;64069;46.396;48.102;2023-10-19T06:45:35;11.68;80.44
75489;HTU21D;64069;46.396;48.102;2023-10-19T06:48:01;11.63;80.56
75489;HTU21D;64069;46.396;48.102;2023-10-19T06:50:27;11.62;80.64
75489;HTU21D;64069;46.396;48.102;2023-10-19T06:52:53;11.61;80.69
75489;HTU21D;64069;46.396;48.102;2023-10-19T06:55:22;11.67;80.66
75489;HTU21D;64069;46.396;48.102;2023-10-19T06:57:50;11.69;80.66
75489;HTU21D;64069;46.396;48.102;2023-10-19T07:00:20;11.73;80.62
75489;HTU21D;64069;46.396;48.102;2023-10-19T07:02:50;11.77;80.58
75489;HTU21D;64069;46.396;48.102;2023-10-19T07:05:22;11.81;80.54
75489;HTU21D;64069;46.396;48.102;2023-10-19T07:07:51;11.81;80.63
75489;HTU21D;64069;46.396;48.102;2023-10-19T07:10:18;11.81;80.71
75489;HTU21D;64069;46.396;48.102;2023-10-19T07:12:48;11.76;80.87
75489;HTU21D;64069;46.396;48.102;2023-10-19T07:15:15;11.77;80.96
75489;HTU21D;64069;46.396;48.102;2023-10-19T07:17:42;11.78;80.97
75489;HTU21D;64069;46.396;48.102;2023-10-19T07:20:09;11.83;81.01
75489;HTU21D;64069;46.396;48.102;2023-10-19T07:23:09;11.88;80.98
75489;HTU21D;64069;46.396;48.102;2023-10-19T07:25:36;11.91;80.91
75489;HTU21D;64069;46.396;48.102;2023-10-19T07:28:12;11.97;80.92
75489;HTU21D;64069;46.396;48.102;2023-10-19T07:30:42;11.98;80.88
75489;HTU21D;64069;46.396;48.102;2023-10-19T07:33:09;12.01;80.88
75489;HTU21D;64069;46.396;48.102;2023-10-19T07:35:37;12.04;80.91
75489;HTU21D;64069;46.396;48.102;2023-10-19T07:38:05;12.06;80.90
75489;HTU21D;64069;46.396;48.102;2023-10-19T07:40:33;12.06;80.96
75489;HTU21D;64069;46.396;48.102;2023-10-19T07:43:01;12.10;81.02
75489;HTU21D;64069;46.396;48.102;2023-10-19T07:45:29;12.07;81.07
75489;HTU21D;64069;46.396;48.102;2023-10-19T07:47:57;12.05;81.11
75489;HTU21D;64069;46.396;48.102;2023-10-19T07:50:35;12.05;81.16
75489;HTU21D;64069;46.396;48.102;2023-10-19T07:53:02;12.04;81.16
75489;HTU21D;64069;46.396;48.102;2023-10-19T07:55:29;12.05;81.10
75489;HTU21D;64069;46.396;48.102;2023-10-19T07:57:57;12.07;81.08
75489;HTU21D;64069;46.396;48.102;2023-10-19T08:00:26;12.12;81.04
75489;HTU21D;64069;46.396;48.102;2023-10-19T08:02:53;12.19;80.89
75489;HTU21D;64069;46.396;48.102;2023-10-19T08:05:19;12.23;80.73
75489;HTU21D;64069;46.396;48.102;2023-10-19T08:07:46;12.27;80.62
75489;HTU21D;64069;46.396;48.102;2023-10-19T08:10:14;12.34;80.44
75489;HTU21D;64069;46.396;48.102;2023-10-19T08:12:42;12.42;80.27
75489;HTU21D;64069;46.396;48.102;2023-10-19T08:15:12;12.45;80.02
75489;HTU21D;64069;46.396;48.102;2023-10-19T08:17:43;12.48;79.95
75489;HTU21D;64069;46.396;48.102;2023-10-19T08:20:11;12.46;79.83
75489;HTU21D;64069;46.396;48.102;2023-10-19T08:22:54;12.50;79.76
75489;HTU21D;64069;46.396;48.102;2023-10-19T08:25:23;12.55;79.56
75489;HTU21D;64069;46.396;48.102;2023-10-19T08:27:49;12.51;79.34
75489;HTU21D;64069;46.396;48.102;2023-10-19T08:30:18;12.46;79.30
75489;HTU21D;64069;46.396;48.102;2023-10-19T08:32:45;12.45;79.24
75489;HTU21D;64069;46.396;48.102;2023-10-19T08:35:20;12.46;79.15
75489;HTU21D;64069;46.396;48.102;2023-10-19T08:37:54;12.48;79.10
75489;HTU21D;64069;46.396;48.102;2023-10-19T08:40:20;12.51;78.95
75489;HTU21D;64069;46.396;48.102;2023-10-19T08:42:47;12.58;78.84
75489;HTU21D;64069;46.396;48.102;2023-10-19T08:45:14;12.58;78.57
75489;HTU21D;64069;46.396;48.102;2023-10-19T08:47:59;12.56;78.53
75489;HTU21D;64069;46.396;48.102;2023-10-19T08:50:28;12.60;78.41
75489;HTU21D;64069;46.396;48.102;2023-10-19T08:52:57;12.62;78.27
75489;HTU21D;64069;46.396;48.102;2023-10-19T08:55:24;12.70;78.08
75489;HTU21D;64069;46.396;48.102;2023-10-19T08:57:50;12.74;77.91
75489;HTU21D;64069;46.396;48.102;2023-10-19T09:00:17;12.77;77.87
75489;HTU21D;64069;46.396;48.102;2023-10-19T09:02:47;12.84;77.72
75489;HTU21D;64069;46.396;48.102;2023-10-19T09:05:13;12.80;77.56
75489;HTU21D;64069;46.396;48.102;2023-10-19T09:07:49;12.81;77.55
75489;HTU21D;64069;46.396;48.102;2023-10-19T09:10:21;12.86;77.47
75489;HTU21D;64069;46.396;48.102;2023-10-19T09:13:02;12.96;77.27
75489;HTU21D;64069;46.396;48.102;2023-10-19T09:15:29;12.94;77.02
75489;HTU21D;64069;46.396;48.102;2023-10-19T09:18:19;12.87;77.09
75489;HTU21D;64069;46.396;48.102;2023-10-19T09:20:47;12.85;77.08
75489;HTU21D;64069;46.396;48.102;2023-10-19T09:23:24;12.81;76.96
75489;HTU21D;64069;46.396;48.102;2023-10-19T09:25:51;12.81;77.03
75489;HTU21D;64069;46.396;48.102;2023-10-19T09:28:19;12.85;76.92
75489;HTU21D;64069;46.396;48.102;2023-10-19T09:30:46;12.90;76.83
75489;HTU21D;64069;46.396;48.102;2023-10-19T09:33:13;12.92;76.63
75489;HTU21D;64069;46.396;48.102;2023-10-19T09:35:50;12.93;76.58
75489;HTU21D;64069;46.396;48.102;2023-10-19T09:38:22;12.99;76.49
75489;HTU21D;64069;46.396;48.102;2023-10-19T09:40:52;12.99;76.37
75489;HTU21D;64069;46.396;48.102;2023-10-19T09:46:08;13.02;76.18
75489;HTU21D;64069;46.396;48.102;2023-10-19T09:48:42;12.93;76.30
75489;HTU21D;64069;46.396;48.102;2023-10-19T09:51:11;12.94;76.38
75489;HTU21D;64069;46.396;48.102;2023-10-19T09:53:38;13.04;76.19
75489;HTU21D;64069;46.396;48.102;2023-10-19T09:56:13;13.17;75.91
75489;HTU21D;64069;46.396;48.102;2023-10-19T09:58:54;13.35;75.57
75489;HTU21D;64069;46.396;48.102;2023-10-19T10:01:22;13.47;75.25
75489;HTU21D;64069;46.396;48.102;2023-10-19T10:03:51;13.49;75.09
75489;HTU21D;64069;46.396;48.102;2023-10-19T10:09:19;13.69;74.76
75489;HTU21D;64069;46.396;48.102;2023-10-19T10:11:52;13.78;74.47
75489;HTU21D;64069;46.396;48.102;2023-10-19T10:14:27;13.81;74.23
75489;HTU21D;64069;46.396;48.102;2023-10-19T10:17:02;13.85;74.21
75489;HTU21D;64069;46.396;48.102;2023-10-19T10:19:28;13.90;73.99
75489;HTU21D;64069;46.396;48.102;2023-10-19T10:22:10;13.99;73.85
75489;HTU21D;64069;46.396;48.102;2023-10-19T10:24:46;14.07;73.57
75489;HTU21D;64069;46.396;48.102;2023-10-19T10:27:16;14.07;73.48
75489;HTU21D;64069;46.396;48.102;2023-10-19T10:29:58;14.04;73.41
75489;HTU21D;64069;46.396;48.102;2023-10-19T10:32:44;14.07;73.47
75489;HTU21D;64069;46.396;48.102;2023-10-19T10:38:05;14.15;72.98
75489;HTU21D;64069;46.396;48.102;2023-10-19T10:40:50;14.14;73.00
75489;HTU21D;64069;46.396;48.102;2023-10-19T10:43:18;14.19;72.93
75489;HTU21D;64069;46.396;48.102;2023-10-19T10:45:44;14.18;72.90
75489;HTU21D;64069;46.396;48.102;2023-10-19T10:48:16;14.15;72.66
75489;HTU21D;64069;46.396;48.102;2023-10-19T10:50:43;14.10;72.71
75489;HTU21D;64069;46.396;48.102;2023-10-19T10:53:12;14.19;72.42
75489;HTU21D;64069;46.396;48.102;2023-10-19T10:55:39;14.20;72.16
75489;HTU21D;64069;46.396;48.102;2023-10-19T10:58:20;14.22;72.18
75489;HTU21D;64069;46.396;48.102;2023-10-19T11:00:47;14.20;71.97
75489;HTU21D;64069;46.396;48.102;2023-10-19T11:03:16;14.09;71.99
75489;HTU21D;64069;46.396;48.102;2023-10-19T11:05:43;14.00;72.13
75489;HTU21D;64069;46.396;48.102;2023-10-19T11:08:12;13.99;72.18
75489;HTU21D;64069;46.396;48.102;2023-10-19T11:10:48;14.05;72.15
75489;HTU21D;64069;46.396;48.102;2023-10-19T11:13:16;14.08;71.89
75489;HTU21D;64069;46.396;48.102;2023-10-19T11:15:53;14.00;71.67
75489;HTU21D;64069;46.396;48.102;2023-10-19T11:21:00;13.93;71.68
75489;HTU21D;64069;46.396;48.102;2023-10-19T11:26:05;13.99;71.16
75489;HTU21D;64069;46.396;48.102;2023-10-19T11:28:31;13.98;71.09
75489;HTU21D;64069;46.396;48.102;2023-10-19T11:31:18;14.06;70.90
75489;HTU21D;64069;46.396;48.102;2023-10-19T11:33:46;14.10;70.77
75489;HTU21D;64069;46.396;48.102;2023-10-19T11:36:15;14.12;70.61
75489;HTU21D;64069;46.396;48.102;2023-10-19T11:38:46;14.10;70.35
75489;HTU21D;64069;46.396;48.102;2023-10-19T11:41:12;13.98;70.35
75489;HTU21D;64069;46.396;48.102;2023-10-19T11:43:40;13.96;70.52
75489;HTU21D;64069;46.396;48.102;2023-10-19T11:46:07;13.98;70.39
75489;HTU21D;64069;46.396;48.102;2023-10-19T11:48:34;13.92;70.31
75489;HTU21D;64069;46.396;48.102;2023-10-19T11:51:04;13.88;70.44
75489;HTU21D;64069;46.396;48.102;2023-10-19T11:53:34;13.81;70.39
75489;HTU21D;64069;46.396;48.102;2023-10-19T11:56:04;13.77;70.40
75489;HTU21D;64069;46.396;48.102;2023-10-19T11:58:32;13.68;70.55
75489;HTU21D;64069;46.396;48.102;2023-10-19T12:01:04;13.64;70.62
75489;HTU21D;64069;46.396;48.102;2023-10-19T12:03:42;13.63;70.64
75489;HTU21D;64069;46.396;48.102;2023-10-19T12:06:11;13.62;70.77
75489;HTU21D;64069;46.396;48.102;2023-10-19T12:08:38;13.63;70.71
75489;HTU21D;64069;46.396;48.102;2023-10-19T12:11:07;13.66;70.66
75489;HTU21D;64069;46.396;48.102;2023-10-19T12:13:44;13.67;70.60
75489;HTU21D;64069;46.396;48.102;2023-10-19T12:16:16;13.65;70.52
75489;HTU21D;64069;46.396;48.102;2023-10-19T12:18:44;13.65;70.64
75489;HTU21D;64069;46.396;48.102;2023-10-19T12:21:10;13.75;70.55
75489;HTU21D;64069;46.396;48.102;2023-10-19T12:23:44;13.85;70.27
75489;HTU21D;64069;46.396;48.102;2023-10-19T12:26:10;13.93;70.03
75489;HTU21D;64069;46.396;48.102;2023-10-19T12:28:41;13.97;69.63
75489;HTU21D;64069;46.396;48.102;2023-10-19T12:31:08;13.92;69.49
75489;HTU21D;64069;46.396;48.102;2023-10-19T12:33:37;13.83;69.46
75489;HTU21D;64069;46.396;48.102;2023-10-19T12:36:05;13.79;69.70
75489;HTU21D;64069;46.396;48.102;2023-10-19T12:38:50;13.71;69.74
75489;HTU21D;64069;46.396;48.102;2023-10-19T12:41:17;13.59;69.94
75489;HTU21D;64069;46.396;48.102;2023-10-19T12:43:43;13.46;70.14
75489;HTU21D;64069;46.396;48.102;2023-10-19T12:46:11;13.39;70.42
75489;HTU21D;64069;46.396;48.102;2023-10-19T12:48:38;13.38;70.55
75489;HTU21D;64069;46.396;48.102;2023-10-19T12:51:04;13.38;70.45
75489;HTU21D;64069;46.396;48.102;2023-10-19T12:53:33;13.36;70.26
75489;HTU21D;64069;46.396;48.102;2023-10-19T12:55:59;13.27;70.34
75489;HTU21D;64069;46.396;48.102;2023-10-19T12:58:26;13.20;70.44
75489;HTU21D;64069;46.396;48.102;2023-10-19T13:00:53;13.14;70.47
75489;HTU21D;64069;46.396;48.102;2023-10-19T13:03:22;13.07;70.51
75489;HTU21D;64069;46.396;48.102;2023-10-19T13:05:49;13.00;70.57
75489;HTU21D;64069;46.396;48.102;2023-10-19T13:08:15;12.95;70.59
75489;HTU21D;64069;46.396;48.102;2023-10-19T13:10:43;12.91;70.67
75489;HTU21D;64069;46.396;48.102;2023-10-19T13:13:14;12.86;70.77
75489;HTU21D;64069;46.396;48.102;2023-10-19T13:15:45;12.80;70.87
75489;HTU21D;64069;46.396;48.102;2023-10-19T13:18:16;12.74;70.96
75489;HTU21D;64069;46.396;48.102;2023-10-19T13:20:47;12.70;70.94
75489;HTU21D;64069;46.396;48.102;2023-10-19T13:23:14;12.63;71.00
75489;HTU21D;64069;46.396;48.102;2023-10-19T13:25:48;12.58;71.13
75489;HTU21D;64069;46.396;48.102;2023-10-19T13:28:27;12.50;71.23
75489;HTU21D;64069;46.396;48.102;2023-10-19T13:30:54;12.42;71.39
75489;HTU21D;64069;46.396;48.102;2023-10-19T13:33:23;12.34;71.57
75489;HTU21D;64069;46.396;48.102;2023-10-19T13:35:54;12.25;71.74
75489;HTU21D;64069;46.396;48.102;2023-10-19T13:38:20;12.18;71.90
75489;HTU21D;64069;46.396;48.102;2023-10-19T13:40:46;12.13;72.01
75489;HTU21D;64069;46.396;48.102;2023-10-19T13:43:13;12.03;72.18
75489;HTU21D;64069;46.396;48.102;2023-10-19T13:45:40;11.92;72.45
75489;HTU21D;64069;46.396;48.102;2023-10-19T13:48:07;11.82;72.66
75489;HTU21D;64069;46.396;48.102;2023-10-19T13:50:40;11.73;72.86
75489;HTU21D;64069;46.396;48.102;2023-10-19T13:53:06;11.64;73.00
75489;HTU21D;64069;46.396;48.102;2023-10-19T13:55:31;11.49;73.28
75489;HTU21D;64069;46.396;48.102;2023-10-19T13:58:04;11.38;73.58
75489;HTU21D;64069;46.396;48.102;2023-10-19T14:00:30;11.25;73.88
75489;HTU21D;64069;46.396;48.102;2023-10-19T14:03:05;11.08;74.20
75489;HTU21D;64069;46.396;48.102;2023-10-19T14:05:39;10.90;74.69
75489;HTU21D;64069;46.396;48.102;2023-10-19T14:08:06;10.73;74.92
75489;HTU21D;64069;46.396;48.102;2023-10-19T14:10:33;10.57;75.25
75489;HTU21D;64069;46.396;48.102;2023-10-19T14:13:01;10.41;75.58
75489;HTU21D;64069;46.396;48.102;2023-10-19T14:15:27;10.27;75.91
75489;HTU21D;64069;46.396;48.102;2023-10-19T14:18:00;10.11;76.18
75489;HTU21D;64069;46.396;48.102;2023-10-19T14:20:29;9.97;76.50
75489;HTU21D;64069;46.396;48.102;2023-10-19T14:22:55;9.83;76.73
75489;HTU21D;64069;46.396;48.102;2023-10-19T14:25:22;9.69;77.04
75489;HTU21D;64069;46.396;48.102;2023-10-19T14:27:54;9.55;77.39
75489;HTU21D;64069;46.396;48.102;2023-10-19T14:30:24;9.41;77.60
75489;HTU21D;64069;46.396;48.102;2023-10-19T14:32:50;9.31;77.84
75489;HTU21D;64069;46.396;48.102;2023-10-19T14:35:18;9.19;78.10
75489;HTU21D;64069;46.396;48.102;2023-10-19T14:37:46;9.10;78.26
75489;HTU21D;64069;46.396;48.102;2023-10-19T14:40:16;8.97;78.43
75489;HTU21D;64069;46.396;48.102;2023-10-19T14:42:42;8.89;78.59
75489;HTU21D;64069;46.396;48.102;2023-10-19T14:45:10;8.81;78.72
75489;HTU21D;64069;46.396;48.102;2023-10-19T14:47:37;8.75;78.88
75489;HTU21D;64069;46.396;48.102;2023-10-19T14:50:15;8.66;79.21
75489;HTU21D;64069;46.396;48.102;2023-10-19T14:52:48;8.60;79.22
75489;HTU21D;64069;46.396;48.102;2023-10-19T14:55:15;8.53;79.27
75489;HTU21D;64069;46.396;48.102;2023-10-19T14:57:43;8.47;79.40
75489;HTU21D;64069;46.396;48.102;2023-10-19T15:00:12;8.35;79.60
75489;HTU21D;64069;46.396;48.102;2023-10-19T15:02:46;8.24;79.81
75489;HTU21D;64069;46.396;48.102;2023-10-19T15:05:13;8.16;80.00
75489;HTU21D;64069;46.396;48.102;2023-10-19T15:07:43;8.08;80.27
75489;HTU21D;64069;46.396;48.102;2023-10-19T15:10:11;8.06;80.31
75489;HTU21D;64069;46.396;48.102;2023-10-19T15:12:40;8.02;80.33
75489;HTU21D;64069;46.396;48.102;2023-10-19T15:15:08;7.98;80.43
75489;HTU21D;64069;46.396;48.102;2023-10-19T15:17:37;7.90;80.60
75489;HTU21D;64069;46.396;48.102;2023-10-19T15:20:09;7.82;80.75
75489;HTU21D;64069;46.396;48.102;2023-10-19T15:22:36;7.76;80.89
75489;HTU21D;64069;46.396;48.102;2023-10-19T15:25:03;7.73;81.03
75489;HTU21D;64069;46.396;48.102;2023-10-19T15:27:30;7.70;81.11
75489;HTU21D;64069;46.396;48.102;2023-10-19T15:29:56;7.62;81.21
75489;HTU21D;64069;46.396;48.102;2023-10-19T15:32:23;7.59;81.35
75489;HTU21D;64069;46.396;48.102;2023-10-19T15:34:52;7.54;81.46
75489;HTU21D;64069;46.396;48.102;2023-10-19T15:37:19;7.52;81.56